sensor_id;sensor_type;location;lat;lon;timestamp;temperature;humidity
13992;DHT22;7070;53.586;9.692;2023-07-13T00:00:41;16.00;85.80
13992;DHT22;7070;53.586;9.692;2023-07-13T00:03:08;16.00;85.80
13992;DHT22;7070;53.586;9.692;2023-07-13T00:05:39;16.00;85.90
13992;DHT22;7070;53.586;9.692;2023-07-13T00:08:08;15.90;85.80
13992;DHT22;7070;53.586;9.692;2023-07-13T00:10:39;15.90;85.80
13992;DHT22;7070;53.586;9.692;2023-07-13T00:13:07;15.80;85.80
13992;DHT22;7070;53.586;9.692;2023-07-13T00:15:34;15.80;85.90
13992;DHT22;7070;53.586;9.692;2023-07-13T00:18:01;15.80;85.90
13992;DHT22;7070;53.586;9.692;2023-07-13T00:20:28;15.70;85.80
13992;DHT22;7070;53.586;9.692;2023-07-13T00:22:55;15.70;85.90
13992;DHT22;7070;53.586;9.692;2023-07-13T00:25:24;15.60;85.80
13992;DHT22;7070;53.586;9.692;2023-07-13T00:27:53;15.60;86.70
13992;DHT22;7070;53.586;9.692;2023-07-13T00:30:21;15.60;85.90
13992;DHT22;7070;53.586;9.692;2023-07-13T00:32:48;15.50;85.90
13992;DHT22;7070;53.586;9.692;2023-07-13T00:35:15;15.60;86.00
13992;DHT22;7070;53.586;9.692;2023-07-13T00:37:42;15.50;85.90
13992;DHT22;7070;53.586;9.692;2023-07-13T00:40:11;15.50;85.90
13992;DHT22;7070;53.586;9.692;2023-07-13T00:42:40;15.50;86.00
13992;DHT22;7070;53.586;9.692;2023-07-13T00:48:15;15.50;87.60
13992;DHT22;7070;53.586;9.692;2023-07-13T00:50:44;15.50;86.30
13992;DHT22;7070;53.586;9.692;2023-07-13T00:53:13;15.50;86.30
13992;DHT22;7070;53.586;9.692;2023-07-13T00:55:40;15.40;86.00
13992;DHT22;7070;53.586;9.692;2023-07-13T00:58:08;15.40;86.10
13992;DHT22;7070;53.586;9.692;2023-07-13T01:00:36;15.40;86.10
13992;DHT22;7070;53.586;9.692;2023-07-13T01:03:04;15.40;86.30
13992;DHT22;7070;53.586;9.692;2023-07-13T01:05:33;15.30;86.10
13992;DHT22;7070;53.586;9.692;2023-07-13T01:08:01;15.40;86.20
13992;DHT22;7070;53.586;9.692;2023-07-13T01:10:29;15.30;86.10
13992;DHT22;7070;53.586;9.692;2023-07-13T01:13:04;15.30;86.10
13992;DHT22;7070;53.586;9.692;2023-07-13T01:15:38;15.30;86.20
13992;DHT22;7070;53.586;9.692;2023-07-13T01:18:05;15.30;86.50
13992;DHT22;7070;53.586;9.692;2023-07-13T01:20:33;15.30;86.20
13992;DHT22;7070;53.586;9.692;2023-07-13T01:23:05;15.30;86.20
13992;DHT22;7070;53.586;9.692;2023-07-13T01:25:34;15.30;86.30
13992;DHT22;7070;53.586;9.692;2023-07-13T01:28:01;15.30;86.20
13992;DHT22;7070;53.586;9.692;2023-07-13T01:30:28;15.20;86.10
13992;DHT22;7070;53.586;9.692;2023-07-13T01:32:56;15.30;86.30
13992;DHT22;7070;53.586;9.692;2023-07-13T01:35:23;15.20;86.20
13992;DHT22;7070;53.586;9.692;2023-07-13T01:37:52;15.30;86.30
13992;DHT22;7070;53.586;9.692;2023-07-13T01:40:21;15.20;86.20
13992;DHT22;7070;53.586;9.692;2023-07-13T01:42:47;15.20;86.10
13992;DHT22;7070;53.586;9.692;2023-07-13T01:45:14;15.20;86.00
13992;DHT22;7070;53.586;9.692;2023-07-13T01:47:41;15.20;86.00
13992;DHT22;7070;53.586;9.692;2023-07-13T01:50:09;15.10;86.00
13992;DHT22;7070;53.586;9.692;2023-07-13T01:52:36;15.10;86.00
13992;DHT22;7070;53.586;9.692;2023-07-13T01:55:04;15.10;86.00
13992;DHT22;7070;53.586;9.692;2023-07-13T01:57:32;15.10;86.00
13992;DHT22;7070;53.586;9.692;2023-07-13T02:00:02;15.00;85.90
13992;DHT22;7070;53.586;9.692;2023-07-13T02:02:30;15.00;85.90
13992;DHT22;7070;53.586;9.692;2023-07-13T02:04:57;15.00;85.90
13992;DHT22;7070;53.586;9.692;2023-07-13T02:07:23;15.00;86.10
13992;DHT22;7070;53.586;9.692;2023-07-13T02:09:50;14.90;86.00
13992;DHT22;7070;53.586;9.692;2023-07-13T02:12:17;14.90;86.00
13992;DHT22;7070;53.586;9.692;2023-07-13T02:14:45;14.90;86.00
13992;DHT22;7070;53.586;9.692;2023-07-13T02:17:14;14.90;86.00
13992;DHT22;7070;53.586;9.692;2023-07-13T02:19:40;14.90;86.00
13992;DHT22;7070;53.586;9.692;2023-07-13T02:22:07;14.80;86.00
13992;DHT22;7070;53.586;9.692;2023-07-13T02:24:34;14.80;86.00
13992;DHT22;7070;53.586;9.692;2023-07-13T02:27:02;14.80;86.00
13992;DHT22;7070;53.586;9.692;2023-07-13T02:29:29;14.70;85.90
13992;DHT22;7070;53.586;9.692;2023-07-13T02:31:57;14.70;85.90
13992;DHT22;7070;53.586;9.692;2023-07-13T02:34:24;14.70;86.00
13992;DHT22;7070;53.586;9.692;2023-07-13T02:36:51;14.70;86.00
13992;DHT22;7070;53.586;9.692;2023-07-13T02:39:18;14.60;85.90
13992;DHT22;7070;53.586;9.692;2023-07-13T02:41:45;14.70;86.00
13992;DHT22;7070;53.586;9.692;2023-07-13T02:44:12;14.60;85.90
13992;DHT22;7070;53.586;9.692;2023-07-13T02:46:39;14.60;85.90
13992;DHT22;7070;53.586;9.692;2023-07-13T02:49:07;14.60;86.00
13992;DHT22;7070;53.586;9.692;2023-07-13T02:51:34;14.50;85.90
13992;DHT22;7070;53.586;9.692;2023-07-13T02:54:01;14.50;86.00
13992;DHT22;7070;53.586;9.692;2023-07-13T02:56:30;14.50;86.00
13992;DHT22;7070;53.586;9.692;2023-07-13T02:58:57;14.50;86.10
13992;DHT22;7070;53.586;9.692;2023-07-13T03:01:24;14.60;86.80
13992;DHT22;7070;53.586;9.692;2023-07-13T03:03:52;14.50;86.00
13992;DHT22;7070;53.586;9.692;2023-07-13T03:06:20;14.50;86.10
13992;DHT22;7070;53.586;9.692;2023-07-13T03:08:48;14.40;86.70
13992;DHT22;7070;53.586;9.692;2023-07-13T03:11:18;14.40;86.00
13992;DHT22;7070;53.586;9.692;2023-07-13T03:13:45;14.40;86.00
13992;DHT22;7070;53.586;9.692;2023-07-13T03:16:13;14.40;86.10
13992;DHT22;7070;53.586;9.692;2023-07-13T03:18:41;14.40;86.10
13992;DHT22;7070;53.586;9.692;2023-07-13T03:21:08;14.40;86.20
13992;DHT22;7070;53.586;9.692;2023-07-13T03:23:36;14.40;86.30
13992;DHT22;7070;53.586;9.692;2023-07-13T03:26:06;14.40;86.30
13992;DHT22;7070;53.586;9.692;2023-07-13T03:28:33;14.30;86.30
13992;DHT22;7070;53.586;9.692;2023-07-13T03:31:02;14.30;86.20
13992;DHT22;7070;53.586;9.692;2023-07-13T03:33:29;14.40;86.30
13992;DHT22;7070;53.586;9.692;2023-07-13T03:35:57;14.40;86.30
13992;DHT22;7070;53.586;9.692;2023-07-13T03:38:24;14.40;86.30
13992;DHT22;7070;53.586;9.692;2023-07-13T03:40:53;14.40;86.40
13992;DHT22;7070;53.586;9.692;2023-07-13T03:43:20;14.40;86.40
13992;DHT22;7070;53.586;9.692;2023-07-13T03:45:47;14.30;86.30
13992;DHT22;7070;53.586;9.692;2023-07-13T03:48:14;14.40;86.40
13992;DHT22;7070;53.586;9.692;2023-07-13T03:50:41;14.40;86.40
13992;DHT22;7070;53.586;9.692;2023-07-13T03:53:08;14.40;86.40
13992;DHT22;7070;53.586;9.692;2023-07-13T03:55:35;14.40;86.30
13992;DHT22;7070;53.586;9.692;2023-07-13T03:58:25;14.40;86.50
13992;DHT22;7070;53.586;9.692;2023-07-13T04:00:52;14.40;87.60
13992;DHT22;7070;53.586;9.692;2023-07-13T04:03:19;14.50;86.70
13992;DHT22;7070;53.586;9.692;2023-07-13T04:05:47;12.90;85.00
13992;DHT22;7070;53.586;9.692;2023-07-13T04:08:14;14.40;86.50
13992;DHT22;7070;53.586;9.692;2023-07-13T04:10:41;14.50;86.60
13992;DHT22;7070;53.586;9.692;2023-07-13T04:13:08;14.50;86.70
13992;DHT22;7070;53.586;9.692;2023-07-13T04:15:38;14.50;86.60
13992;DHT22;7070;53.586;9.692;2023-07-13T04:18:05;14.60;86.80
13992;DHT22;7070;53.586;9.692;2023-07-13T04:20:32;14.50;86.70
13992;DHT22;7070;53.586;9.692;2023-07-13T04:22:59;14.60;86.70
13992;DHT22;7070;53.586;9.692;2023-07-13T04:25:26;14.60;86.80
13992;DHT22;7070;53.586;9.692;2023-07-13T04:27:53;14.60;86.80
13992;DHT22;7070;53.586;9.692;2023-07-13T04:30:20;14.70;86.90
13992;DHT22;7070;53.586;9.692;2023-07-13T04:32:50;14.70;86.90
13992;DHT22;7070;53.586;9.692;2023-07-13T04:35:18;14.70;87.00
13992;DHT22;7070;53.586;9.692;2023-07-13T04:37:46;14.70;87.00
13992;DHT22;7070;53.586;9.692;2023-07-13T04:40:14;14.80;87.50
13992;DHT22;7070;53.586;9.692;2023-07-13T04:42:41;14.90;87.90
13992;DHT22;7070;53.586;9.692;2023-07-13T04:45:08;15.00;88.30
13992;DHT22;7070;53.586;9.692;2023-07-13T04:47:35;15.20;88.60
13992;DHT22;7070;53.586;9.692;2023-07-13T04:50:04;15.40;88.80
13992;DHT22;7070;53.586;9.692;2023-07-13T04:52:31;15.60;89.00
13992;DHT22;7070;53.586;9.692;2023-07-13T04:54:59;15.90;89.50
13992;DHT22;7070;53.586;9.692;2023-07-13T04:57:28;16.00;89.40
13992;DHT22;7070;53.586;9.692;2023-07-13T04:59:55;16.30;89.90
13992;DHT22;7070;53.586;9.692;2023-07-13T05:02:22;16.60;89.90
13992;DHT22;7070;53.586;9.692;2023-07-13T05:04:49;16.70;89.70
13992;DHT22;7070;53.586;9.692;2023-07-13T05:07:17;17.00;89.70
13992;DHT22;7070;53.586;9.692;2023-07-13T05:09:44;17.10;89.60
13992;DHT22;7070;53.586;9.692;2023-07-13T05:12:11;17.20;89.30
13992;DHT22;7070;53.586;9.692;2023-07-13T05:14:38;17.30;89.10
13992;DHT22;7070;53.586;9.692;2023-07-13T05:17:05;17.40;89.00
13992;DHT22;7070;53.586;9.692;2023-07-13T05:19:31;17.50;88.80
13992;DHT22;7070;53.586;9.692;2023-07-13T05:21:58;17.60;88.80
13992;DHT22;7070;53.586;9.692;2023-07-13T05:24:27;17.60;88.60
13992;DHT22;7070;53.586;9.692;2023-07-13T05:26:53;17.60;88.60
13992;DHT22;7070;53.586;9.692;2023-07-13T05:29:21;17.60;88.50
13992;DHT22;7070;53.586;9.692;2023-07-13T05:31:49;17.70;88.50
13992;DHT22;7070;53.586;9.692;2023-07-13T05:34:16;17.70;88.40
13992;DHT22;7070;53.586;9.692;2023-07-13T05:36:43;17.60;88.10
13992;DHT22;7070;53.586;9.692;2023-07-13T05:39:13;17.70;88.30
13992;DHT22;7070;53.586;9.692;2023-07-13T05:41:41;17.70;88.40
13992;DHT22;7070;53.586;9.692;2023-07-13T05:44:08;17.60;89.10
13992;DHT22;7070;53.586;9.692;2023-07-13T05:46:35;17.60;88.40
13992;DHT22;7070;53.586;9.692;2023-07-13T05:49:02;17.70;88.60
13992;DHT22;7070;53.586;9.692;2023-07-13T05:51:29;17.70;88.60
13992;DHT22;7070;53.586;9.692;2023-07-13T05:53:55;17.70;88.60
13992;DHT22;7070;53.586;9.692;2023-07-13T05:56:23;17.70;88.80
13992;DHT22;7070;53.586;9.692;2023-07-13T05:58:53;17.80;88.90
13992;DHT22;7070;53.586;9.692;2023-07-13T06:01:20;17.80;89.00
13992;DHT22;7070;53.586;9.692;2023-07-13T06:03:48;17.90;89.10
13992;DHT22;7070;53.586;9.692;2023-07-13T06:06:17;17.90;89.20
13992;DHT22;7070;53.586;9.692;2023-07-13T06:08:44;18.00;89.40
13992;DHT22;7070;53.586;9.692;2023-07-13T06:11:14;18.00;89.50
13992;DHT22;7070;53.586;9.692;2023-07-13T06:13:41;18.10;89.60
13992;DHT22;7070;53.586;9.692;2023-07-13T06:16:10;18.30;89.90
13992;DHT22;7070;53.586;9.692;2023-07-13T06:18:38;18.40;90.00
13992;DHT22;7070;53.586;9.692;2023-07-13T06:21:06;18.50;90.00
13992;DHT22;7070;53.586;9.692;2023-07-13T06:23:34;18.50;90.00
13992;DHT22;7070;53.586;9.692;2023-07-13T06:26:01;18.70;90.10
13992;DHT22;7070;53.586;9.692;2023-07-13T06:28:28;18.70;90.10
13992;DHT22;7070;53.586;9.692;2023-07-13T06:30:55;18.90;90.20
13992;DHT22;7070;53.586;9.692;2023-07-13T06:33:24;18.90;90.20
13992;DHT22;7070;53.586;9.692;2023-07-13T06:35:51;19.00;90.20
13992;DHT22;7070;53.586;9.692;2023-07-13T06:38:18;19.10;90.10
13992;DHT22;7070;53.586;9.692;2023-07-13T06:40:45;19.20;90.10
13992;DHT22;7070;53.586;9.692;2023-07-13T06:43:12;19.20;90.00
13992;DHT22;7070;53.586;9.692;2023-07-13T06:45:43;19.30;90.00
13992;DHT22;7070;53.586;9.692;2023-07-13T06:48:11;19.40;90.00
13992;DHT22;7070;53.586;9.692;2023-07-13T06:50:39;19.40;90.00
13992;DHT22;7070;53.586;9.692;2023-07-13T06:53:06;19.40;90.10
13992;DHT22;7070;53.586;9.692;2023-07-13T06:55:33;19.60;90.20
13992;DHT22;7070;53.586;9.692;2023-07-13T06:58:00;19.60;90.20
13992;DHT22;7070;53.586;9.692;2023-07-13T07:00:26;19.60;90.10
13992;DHT22;7070;53.586;9.692;2023-07-13T07:02:53;19.70;90.20
13992;DHT22;7070;53.586;9.692;2023-07-13T07:05:20;19.80;90.30
13992;DHT22;7070;53.586;9.692;2023-07-13T07:07:50;19.80;90.30
13992;DHT22;7070;53.586;9.692;2023-07-13T07:10:17;20.00;90.60
13992;DHT22;7070;53.586;9.692;2023-07-13T07:12:44;20.10;90.60
13992;DHT22;7070;53.586;9.692;2023-07-13T07:15:11;20.20;91.00
13992;DHT22;7070;53.586;9.692;2023-07-13T07:17:38;20.30;90.60
13992;DHT22;7070;53.586;9.692;2023-07-13T07:20:06;20.50;90.60
13992;DHT22;7070;53.586;9.692;2023-07-13T07:22:33;20.50;90.60
13992;DHT22;7070;53.586;9.692;2023-07-13T07:25:01;20.60;90.50
13992;DHT22;7070;53.586;9.692;2023-07-13T07:27:28;20.80;90.50
13992;DHT22;7070;53.586;9.692;2023-07-13T07:29:55;20.80;90.50
13992;DHT22;7070;53.586;9.692;2023-07-13T07:32:23;20.90;90.50
13992;DHT22;7070;53.586;9.692;2023-07-13T07:34:50;20.90;90.40
13992;DHT22;7070;53.586;9.692;2023-07-13T07:37:16;20.90;90.40
13992;DHT22;7070;53.586;9.692;2023-07-13T07:39:44;21.00;90.50
13992;DHT22;7070;53.586;9.692;2023-07-13T07:42:12;21.00;90.40
13992;DHT22;7070;53.586;9.692;2023-07-13T07:44:40;21.10;90.50
13992;DHT22;7070;53.586;9.692;2023-07-13T07:47:07;21.10;90.50
13992;DHT22;7070;53.586;9.692;2023-07-13T07:49:34;21.20;90.50
13992;DHT22;7070;53.586;9.692;2023-07-13T07:52:01;21.20;90.30
13992;DHT22;7070;53.586;9.692;2023-07-13T07:54:28;21.20;90.40
13992;DHT22;7070;53.586;9.692;2023-07-13T07:56:55;21.20;90.50
13992;DHT22;7070;53.586;9.692;2023-07-13T07:59:23;21.20;90.60
13992;DHT22;7070;53.586;9.692;2023-07-13T08:01:50;21.30;90.70
13992;DHT22;7070;53.586;9.692;2023-07-13T08:04:17;21.40;90.70
13992;DHT22;7070;53.586;9.692;2023-07-13T08:06:44;21.50;90.80
13992;DHT22;7070;53.586;9.692;2023-07-13T08:09:11;21.60;90.90
13992;DHT22;7070;53.586;9.692;2023-07-13T08:11:38;21.70;90.90
13992;DHT22;7070;53.586;9.692;2023-07-13T08:14:04;21.70;90.80
13992;DHT22;7070;53.586;9.692;2023-07-13T08:16:33;21.70;90.60
13992;DHT22;7070;53.586;9.692;2023-07-13T08:19:00;21.80;90.80
13992;DHT22;7070;53.586;9.692;2023-07-13T08:21:26;21.80;90.80
13992;DHT22;7070;53.586;9.692;2023-07-13T08:23:53;21.90;90.80
13992;DHT22;7070;53.586;9.692;2023-07-13T08:26:20;21.90;90.80
13992;DHT22;7070;53.586;9.692;2023-07-13T08:28:47;22.00;90.70
13992;DHT22;7070;53.586;9.692;2023-07-13T08:31:14;22.00;90.70
13992;DHT22;7070;53.586;9.692;2023-07-13T08:33:42;22.00;90.60
13992;DHT22;7070;53.586;9.692;2023-07-13T08:36:09;22.00;90.50
13992;DHT22;7070;53.586;9.692;2023-07-13T08:38:36;21.90;90.60
13992;DHT22;7070;53.586;9.692;2023-07-13T08:41:11;21.90;90.70
13992;DHT22;7070;53.586;9.692;2023-07-13T08:43:39;21.90;90.80
13992;DHT22;7070;53.586;9.692;2023-07-13T08:46:11;22.00;90.70
13992;DHT22;7070;53.586;9.692;2023-07-13T08:48:44;21.90;90.90
13992;DHT22;7070;53.586;9.692;2023-07-13T08:51:24;22.00;91.10
13992;DHT22;7070;53.586;9.692;2023-07-13T08:53:57;22.10;91.60
13992;DHT22;7070;53.586;9.692;2023-07-13T08:56:27;22.30;91.60
13992;DHT22;7070;53.586;9.692;2023-07-13T08:58:56;22.50;91.70
13992;DHT22;7070;53.586;9.692;2023-07-13T09:01:29;22.60;91.60
13992;DHT22;7070;53.586;9.692;2023-07-13T09:04:04;22.80;91.60
13992;DHT22;7070;53.586;9.692;2023-07-13T09:06:43;22.90;91.50
13992;DHT22;7070;53.586;9.692;2023-07-13T09:09:19;23.00;91.60
13992;DHT22;7070;53.586;9.692;2023-07-13T09:11:56;23.00;91.20
13992;DHT22;7070;53.586;9.692;2023-07-13T09:14:34;22.90;91.30
13992;DHT22;7070;53.586;9.692;2023-07-13T09:17:04;22.90;90.80
13992;DHT22;7070;53.586;9.692;2023-07-13T09:19:34;22.80;90.50
13992;DHT22;7070;53.586;9.692;2023-07-13T09:22:04;22.70;90.60
13992;DHT22;7070;53.586;9.692;2023-07-13T09:24:36;22.60;90.60
13992;DHT22;7070;53.586;9.692;2023-07-13T09:27:13;22.50;90.70
13992;DHT22;7070;53.586;9.692;2023-07-13T09:29:47;22.40;90.70
13992;DHT22;7070;53.586;9.692;2023-07-13T09:32:17;22.40;90.80
13992;DHT22;7070;53.586;9.692;2023-07-13T09:34:51;22.40;90.90
13992;DHT22;7070;53.586;9.692;2023-07-13T09:37:21;22.40;91.40
13992;DHT22;7070;53.586;9.692;2023-07-13T09:39:49;22.50;91.50
13992;DHT22;7070;53.586;9.692;2023-07-13T09:42:19;22.60;91.60
13992;DHT22;7070;53.586;9.692;2023-07-13T09:44:53;22.70;91.50
13992;DHT22;7070;53.586;9.692;2023-07-13T09:47:22;22.80;91.50
13992;DHT22;7070;53.586;9.692;2023-07-13T09:49:56;22.80;91.20
13992;DHT22;7070;53.586;9.692;2023-07-13T09:52:24;22.90;91.30
13992;DHT22;7070;53.586;9.692;2023-07-13T09:54:52;22.80;91.00
13992;DHT22;7070;53.586;9.692;2023-07-13T09:57:25;22.80;91.00
13992;DHT22;7070;53.586;9.692;2023-07-13T09:59:53;22.80;91.00
13992;DHT22;7070;53.586;9.692;2023-07-13T10:02:28;22.70;91.10
13992;DHT22;7070;53.586;9.692;2023-07-13T10:05:01;22.80;91.50
13992;DHT22;7070;53.586;9.692;2023-07-13T10:07:29;22.90;91.70
13992;DHT22;7070;53.586;9.692;2023-07-13T10:09:59;22.90;91.50
13992;DHT22;7070;53.586;9.692;2023-07-13T10:12:27;23.00;91.50
13992;DHT22;7070;53.586;9.692;2023-07-13T10:14:56;23.10;91.60
13992;DHT22;7070;53.586;9.692;2023-07-13T10:17:27;23.20;91.70
13992;DHT22;7070;53.586;9.692;2023-07-13T10:20:00;23.30;92.00
13992;DHT22;7070;53.586;9.692;2023-07-13T10:22:37;23.40;92.00
13992;DHT22;7070;53.586;9.692;2023-07-13T10:25:14;23.60;92.20
13992;DHT22;7070;53.586;9.692;2023-07-13T10:27:43;23.80;92.30
13992;DHT22;7070;53.586;9.692;2023-07-13T10:30:14;24.00;92.20
13992;DHT22;7070;53.586;9.692;2023-07-13T10:32:44;24.20;92.30
13992;DHT22;7070;53.586;9.692;2023-07-13T10:35:14;24.30;92.20
13992;DHT22;7070;53.586;9.692;2023-07-13T10:37:46;24.60;92.30
13992;DHT22;7070;53.586;9.692;2023-07-13T10:40:18;24.70;92.30
13992;DHT22;7070;53.586;9.692;2023-07-13T10:42:48;24.90;92.30
13992;DHT22;7070;53.586;9.692;2023-07-13T10:45:19;25.00;92.10
13992;DHT22;7070;53.586;9.692;2023-07-13T10:47:47;25.20;92.00
13992;DHT22;7070;53.586;9.692;2023-07-13T10:50:19;25.20;91.80
13992;DHT22;7070;53.586;9.692;2023-07-13T10:52:48;25.30;91.80
13992;DHT22;7070;53.586;9.692;2023-07-13T10:55:39;25.30;91.90
13992;DHT22;7070;53.586;9.692;2023-07-13T10:58:20;25.50;92.10
13992;DHT22;7070;53.586;9.692;2023-07-13T11:00:49;25.50;91.80
13992;DHT22;7070;53.586;9.692;2023-07-13T11:03:20;25.60;91.60
13992;DHT22;7070;53.586;9.692;2023-07-13T11:05:51;25.60;91.70
13992;DHT22;7070;53.586;9.692;2023-07-13T11:08:33;25.60;91.20
13992;DHT22;7070;53.586;9.692;2023-07-13T11:11:02;25.60;91.00
13992;DHT22;7070;53.586;9.692;2023-07-13T11:16:37;25.40;90.70
13992;DHT22;7070;53.586;9.692;2023-07-13T11:19:28;25.30;90.40
13992;DHT22;7070;53.586;9.692;2023-07-13T11:22:12;25.20;90.20
13992;DHT22;7070;53.586;9.692;2023-07-13T11:24:57;25.10;90.00
13992;DHT22;7070;53.586;9.692;2023-07-13T11:27:34;25.00;89.70
13992;DHT22;7070;53.586;9.692;2023-07-13T11:30:21;24.80;89.60
13992;DHT22;7070;53.586;9.692;2023-07-13T11:32:51;24.70;89.40
13992;DHT22;7070;53.586;9.692;2023-07-13T11:35:26;24.70;89.80
13992;DHT22;7070;53.586;9.692;2023-07-13T11:37:55;24.70;90.10
13992;DHT22;7070;53.586;9.692;2023-07-13T11:40:25;24.70;90.20
13992;DHT22;7070;53.586;9.692;2023-07-13T11:42:59;24.80;90.30
13992;DHT22;7070;53.586;9.692;2023-07-13T11:45:26;24.90;90.30
13992;DHT22;7070;53.586;9.692;2023-07-13T11:47:53;25.10;90.10
13992;DHT22;7070;53.586;9.692;2023-07-13T11:50:24;25.20;89.60
13992;DHT22;7070;53.586;9.692;2023-07-13T11:52:52;25.20;88.50
13992;DHT22;7070;53.586;9.692;2023-07-13T11:55:23;25.20;88.10
13992;DHT22;7070;53.586;9.692;2023-07-13T11:57:51;25.10;85.70
13992;DHT22;7070;53.586;9.692;2023-07-13T12:00:23;24.80;83.30
13992;DHT22;7070;53.586;9.692;2023-07-13T12:02:54;24.50;81.30
13992;DHT22;7070;53.586;9.692;2023-07-13T12:05:22;24.00;79.40
13992;DHT22;7070;53.586;9.692;2023-07-13T12:07:49;23.30;79.10
13992;DHT22;7070;53.586;9.692;2023-07-13T12:10:20;22.60;79.30
13992;DHT22;7070;53.586;9.692;2023-07-13T12:12:52;22.00;79.70
13992;DHT22;7070;53.586;9.692;2023-07-13T12:15:20;21.40;80.30
13992;DHT22;7070;53.586;9.692;2023-07-13T12:17:48;20.90;81.40
13992;DHT22;7070;53.586;9.692;2023-07-13T12:20:21;20.50;82.40
13992;DHT22;7070;53.586;9.692;2023-07-13T12:22:49;20.20;83.20
13992;DHT22;7070;53.586;9.692;2023-07-13T12:25:17;20.00;84.10
13992;DHT22;7070;53.586;9.692;2023-07-13T12:27:46;20.00;85.10
13992;DHT22;7070;53.586;9.692;2023-07-13T12:30:27;19.90;85.80
13992;DHT22;7070;53.586;9.692;2023-07-13T12:32:59;19.90;86.40
13992;DHT22;7070;53.586;9.692;2023-07-13T12:35:29;20.00;86.50
13992;DHT22;7070;53.586;9.692;2023-07-13T12:37:58;20.10;86.40
13992;DHT22;7070;53.586;9.692;2023-07-13T12:40:28;20.10;86.40
13992;DHT22;7070;53.586;9.692;2023-07-13T12:42:58;20.10;86.50
13992;DHT22;7070;53.586;9.692;2023-07-13T12:45:27;20.10;86.30
13992;DHT22;7070;53.586;9.692;2023-07-13T12:47:57;20.10;86.10
13992;DHT22;7070;53.586;9.692;2023-07-13T12:50:29;20.10;86.20
13992;DHT22;7070;53.586;9.692;2023-07-13T12:53:03;20.10;86.10
13992;DHT22;7070;53.586;9.692;2023-07-13T12:55:41;20.10;86.40
13992;DHT22;7070;53.586;9.692;2023-07-13T12:58:13;20.10;86.90
13992;DHT22;7070;53.586;9.692;2023-07-13T13:00:49;20.20;87.50
13992;DHT22;7070;53.586;9.692;2023-07-13T13:03:22;20.30;88.30
13992;DHT22;7070;53.586;9.692;2023-07-13T13:05:57;20.40;88.80
13992;DHT22;7070;53.586;9.692;2023-07-13T13:08:25;20.60;89.10
13992;DHT22;7070;53.586;9.692;2023-07-13T13:10:52;20.90;89.30
13992;DHT22;7070;53.586;9.692;2023-07-13T13:13:18;21.10;89.20
13992;DHT22;7070;53.586;9.692;2023-07-13T13:15:47;21.20;89.00
13992;DHT22;7070;53.586;9.692;2023-07-13T13:18:17;21.40;88.80
13992;DHT22;7070;53.586;9.692;2023-07-13T13:20:45;21.50;89.20
13992;DHT22;7070;53.586;9.692;2023-07-13T13:23:13;21.60;88.20
13992;DHT22;7070;53.586;9.692;2023-07-13T13:25:43;21.70;88.00
13992;DHT22;7070;53.586;9.692;2023-07-13T13:28:14;21.70;87.70
13992;DHT22;7070;53.586;9.692;2023-07-13T13:30:42;21.70;87.50
13992;DHT22;7070;53.586;9.692;2023-07-13T13:33:12;21.70;88.10
13992;DHT22;7070;53.586;9.692;2023-07-13T13:35:41;21.80;87.80
13992;DHT22;7070;53.586;9.692;2023-07-13T13:38:13;21.80;87.80
13992;DHT22;7070;53.586;9.692;2023-07-13T13:40:41;21.80;87.50
13992;DHT22;7070;53.586;9.692;2023-07-13T13:43:15;21.80;87.30
13992;DHT22;7070;53.586;9.692;2023-07-13T13:45:43;21.90;87.40
13992;DHT22;7070;53.586;9.692;2023-07-13T13:48:16;21.80;87.50
13992;DHT22;7070;53.586;9.692;2023-07-13T13:50:44;21.90;88.10
13992;DHT22;7070;53.586;9.692;2023-07-13T13:53:12;22.00;88.90
13992;DHT22;7070;53.586;9.692;2023-07-13T13:55:39;22.10;89.30
13992;DHT22;7070;53.586;9.692;2023-07-13T13:58:08;22.20;89.70
13992;DHT22;7070;53.586;9.692;2023-07-13T14:00:35;22.40;90.00
13992;DHT22;7070;53.586;9.692;2023-07-13T14:03:02;22.60;90.00
13992;DHT22;7070;53.586;9.692;2023-07-13T14:05:30;22.80;89.80
13992;DHT22;7070;53.586;9.692;2023-07-13T14:07:57;23.00;89.50
13992;DHT22;7070;53.586;9.692;2023-07-13T14:10:25;23.10;89.20
13992;DHT22;7070;53.586;9.692;2023-07-13T14:12:54;23.10;88.90
13992;DHT22;7070;53.586;9.692;2023-07-13T14:15:23;23.20;89.60
13992;DHT22;7070;53.586;9.692;2023-07-13T14:17:50;23.20;88.80
13992;DHT22;7070;53.586;9.692;2023-07-13T14:20:19;23.30;89.10
13992;DHT22;7070;53.586;9.692;2023-07-13T14:22:47;23.30;88.90
13992;DHT22;7070;53.586;9.692;2023-07-13T14:25:16;23.40;89.00
13992;DHT22;7070;53.586;9.692;2023-07-13T14:27:44;23.40;88.80
13992;DHT22;7070;53.586;9.692;2023-07-13T14:30:16;23.40;88.80
13992;DHT22;7070;53.586;9.692;2023-07-13T14:32:44;23.40;88.70
13992;DHT22;7070;53.586;9.692;2023-07-13T14:35:11;23.50;88.90
13992;DHT22;7070;53.586;9.692;2023-07-13T14:37:39;23.50;89.10
13992;DHT22;7070;53.586;9.692;2023-07-13T14:40:14;23.60;89.50
13992;DHT22;7070;53.586;9.692;2023-07-13T14:42:42;23.70;89.50
13992;DHT22;7070;53.586;9.692;2023-07-13T14:45:13;23.70;89.70
13992;DHT22;7070;53.586;9.692;2023-07-13T14:47:42;23.80;89.90
13992;DHT22;7070;53.586;9.692;2023-07-13T14:50:14;23.90;89.70
13992;DHT22;7070;53.586;9.692;2023-07-13T14:52:41;24.00;89.10
13992;DHT22;7070;53.586;9.692;2023-07-13T14:55:10;24.00;88.90
13992;DHT22;7070;53.586;9.692;2023-07-13T14:57:42;24.10;89.00
13992;DHT22;7070;53.586;9.692;2023-07-13T15:00:13;24.00;89.00
13992;DHT22;7070;53.586;9.692;2023-07-13T15:02:45;24.10;88.80
13992;DHT22;7070;53.586;9.692;2023-07-13T15:05:15;24.10;88.50
13992;DHT22;7070;53.586;9.692;2023-07-13T15:07:42;24.10;88.20
13992;DHT22;7070;53.586;9.692;2023-07-13T15:10:17;24.00;87.60
13992;DHT22;7070;53.586;9.692;2023-07-13T15:12:46;23.80;87.20
13992;DHT22;7070;53.586;9.692;2023-07-13T15:15:14;23.70;87.30
13992;DHT22;7070;53.586;9.692;2023-07-13T15:17:42;23.60;87.40
13992;DHT22;7070;53.586;9.692;2023-07-13T15:20:17;23.50;87.60
13992;DHT22;7070;53.586;9.692;2023-07-13T15:22:46;23.50;87.90
13992;DHT22;7070;53.586;9.692;2023-07-13T15:25:16;23.50;88.50
13992;DHT22;7070;53.586;9.692;2023-07-13T15:27:43;23.50;88.80
13992;DHT22;7070;53.586;9.692;2023-07-13T15:30:13;23.50;89.10
13992;DHT22;7070;53.586;9.692;2023-07-13T15:32:41;23.70;89.50
13992;DHT22;7070;53.586;9.692;2023-07-13T15:35:14;23.80;89.40
13992;DHT22;7070;53.586;9.692;2023-07-13T15:37:41;23.80;89.10
13992;DHT22;7070;53.586;9.692;2023-07-13T15:40:10;23.90;89.00
13992;DHT22;7070;53.586;9.692;2023-07-13T15:42:37;23.90;88.60
13992;DHT22;7070;53.586;9.692;2023-07-13T15:45:16;24.00;88.30
13992;DHT22;7070;53.586;9.692;2023-07-13T15:47:44;23.90;87.90
13992;DHT22;7070;53.586;9.692;2023-07-13T15:50:16;23.90;87.90
13992;DHT22;7070;53.586;9.692;2023-07-13T15:52:47;23.90;87.60
13992;DHT22;7070;53.586;9.692;2023-07-13T15:55:15;23.80;87.10
13992;DHT22;7070;53.586;9.692;2023-07-13T15:57:47;23.70;86.90
13992;DHT22;7070;53.586;9.692;2023-07-13T16:00:22;23.70;86.50
13992;DHT22;7070;53.586;9.692;2023-07-13T16:02:49;23.60;86.10